Time;durP1;ratioP1;P1;durP2;ratioP2;P2;SDS_P1;SDS_P2;PMS_P1;PMS_P2;Temp;Humidity;BMP_temperature;BMP_pressure;BME280_temperature;BME280_humidity;BME280_pressure;Samples;Min_cycle;Max_cycle;Signal;HPM_P1;HPM_P2
2023/07/14 00:02:53;;;;;;;;;;;23.60;55.20;;;;;;10330201;28;93622;-67
2023/07/14 00:07:56;;;;;;;;;;;23.60;55.10;;;;;;10330776;28;93278;-66
2023/07/14 00:12:59;;;;;;;;;;;23.60;55.20;;;;;;10330703;28;93680;-62
2023/07/14 00:18:18;;;;;;;;;;;23.60;55.20;;;;;;10330919;28;94513;-62
2023/07/14 00:23:20;;;;;;;;;;;23.60;55.20;;;;;;10331156;28;93561;-62
2023/07/14 00:28:23;;;;;;;;;;;23.50;55.10;;;;;;10328679;28;92779;-62
2023/07/14 00:33:25;;;;;;;;;;;23.50;55.10;;;;;;10331150;28;94321;-63
2023/07/14 00:38:27;;;;;;;;;;;23.50;55.00;;;;;;10326375;28;95838;-63
2023/07/14 00:43:30;;;;;;;;;;;23.60;55.10;;;;;;10329702;28;93516;-62
2023/07/14 00:48:32;;;;;;;;;;;23.60;55.00;;;;;;10328588;28;93685;-62
2023/07/14 00:53:38;;;;;;;;;;;23.60;55.00;;;;;;10329314;28;93683;-63
2023/07/14 00:58:47;;;;;;;;;;;23.60;55.00;;;;;;10328621;28;92545;-62
2023/07/14 01:03:55;;;;;;;;;;;23.60;55.00;;;;;;10330173;28;94439;-62
2023/07/14 01:08:59;;;;;;;;;;;23.60;55.00;;;;;;10328265;28;94059;-62
2023/07/14 01:14:03;;;;;;;;;;;23.60;54.90;;;;;;10330391;28;92576;-62
2023/07/14 01:19:09;;;;;;;;;;;23.60;54.90;;;;;;10329488;28;92850;-60
2023/07/14 01:24:17;;;;;;;;;;;23.60;54.80;;;;;;10328887;28;94323;-66
2023/07/14 01:29:19;;;;;;;;;;;23.60;54.80;;;;;;10326387;28;97085;-62
2023/07/14 01:34:21;;;;;;;;;;;23.60;54.70;;;;;;10328271;28;94013;-67
2023/07/14 01:39:24;;;;;;;;;;;23.60;54.70;;;;;;10328068;28;93670;-67
2023/07/14 01:44:26;;;;;;;;;;;23.60;54.60;;;;;;10325376;28;93809;-67
2023/07/14 01:49:28;;;;;;;;;;;23.60;54.60;;;;;;10327534;28;93599;-62
2023/07/14 01:54:45;;;;;;;;;;;23.60;54.50;;;;;;10326494;28;93489;-62
2023/07/14 01:59:50;;;;;;;;;;;23.60;54.40;;;;;;10327323;28;92566;-62
2023/07/14 02:04:52;;;;;;;;;;;23.60;54.40;;;;;;10327986;28;93896;-63
2023/07/14 02:09:54;;;;;;;;;;;23.60;54.40;;;;;;10326696;28;94468;-63
2023/07/14 02:14:58;;;;;;;;;;;23.60;54.40;;;;;;10326904;28;94560;-62
2023/07/14 02:20:03;;;;;;;;;;;23.60;54.40;;;;;;10324540;28;95938;-63
2023/07/14 02:25:09;;;;;;;;;;;23.60;54.40;;;;;;10327114;28;93068;-62
2023/07/14 02:30:13;;;;;;;;;;;23.60;54.30;;;;;;10327092;28;94856;-62
2023/07/14 02:35:34;;;;;;;;;;;23.60;54.20;;;;;;10326283;28;92546;-62
2023/07/14 02:40:37;;;;;;;;;;;23.60;54.20;;;;;;10325922;28;93621;-63
2023/07/14 02:45:42;;;;;;;;;;;23.60;54.20;;;;;;10325590;28;94135;-63
2023/07/14 02:50:44;;;;;;;;;;;23.60;54.20;;;;;;10326818;28;94445;-61
2023/07/14 02:55:46;;;;;;;;;;;23.60;54.20;;;;;;10315309;28;92748;-62
2023/07/14 03:00:48;;;;;;;;;;;23.60;54.20;;;;;;10333055;28;94452;-63
2023/07/14 03:05:51;;;;;;;;;;;23.60;54.20;;;;;;10332639;28;94657;-62
2023/07/14 03:10:57;;;;;;;;;;;23.60;54.10;;;;;;10330199;28;96046;-62
2023/07/14 03:15:58;;;;;;;;;;;23.60;54.10;;;;;;10331604;28;93907;-62
2023/07/14 03:21:01;;;;;;;;;;;23.60;54.10;;;;;;10332501;28;93548;-62
2023/07/14 03:26:05;;;;;;;;;;;23.60;54.20;;;;;;10332088;28;93527;-60
2023/07/14 03:31:08;;;;;;;;;;;23.60;54.20;;;;;;10332364;28;93608;-62
2023/07/14 03:36:14;;;;;;;;;;;23.60;54.10;;;;;;10330966;28;93153;-62
2023/07/14 03:41:16;;;;;;;;;;;23.60;54.10;;;;;;10332916;28;93983;-62
2023/07/14 05:23:44;;;;;;;;;;;23.50;54.30;;;;;;10281989;28;93094;-65
2023/07/14 05:28:46;;;;;;;;;;;23.50;54.30;;;;;;10285097;28;94126;-64
2023/07/14 05:33:48;;;;;;;;;;;23.50;54.50;;;;;;10286040;28;94483;-65
2023/07/14 05:38:50;;;;;;;;;;;23.50;54.60;;;;;;10285299;28;93634;-66
2023/07/14 05:43:52;;;;;;;;;;;23.40;54.60;;;;;;10266234;28;94943;-64
2023/07/14 05:48:54;;;;;;;;;;;23.40;54.60;;;;;;10284110;28;93327;-65
2023/07/14 05:53:56;;;;;;;;;;;23.40;54.80;;;;;;10284851;28;94588;-66
2023/07/14 05:58:58;;;;;;;;;;;23.40;54.90;;;;;;10291322;28;94554;-68
2023/07/14 06:04:00;;;;;;;;;;;23.40;55.10;;;;;;10323319;28;95996;-68
2023/07/14 06:09:02;;;;;;;;;;;23.40;55.90;;;;;;10327432;28;94468;-68
2023/07/14 06:14:04;;;;;;;;;;;23.50;56.30;;;;;;10307986;28;94210;-68
2023/07/14 06:19:07;;;;;;;;;;;23.40;55.70;;;;;;10324971;28;93457;-67
2023/07/14 06:24:09;;;;;;;;;;;23.40;55.40;;;;;;10326116;28;94547;-68
2023/07/14 06:29:11;;;;;;;;;;;23.40;55.20;;;;;;10331571;28;93666;-67
2023/07/14 06:34:13;;;;;;;;;;;23.40;54.90;;;;;;10315383;28;93298;-67
2023/07/14 06:39:15;;;;;;;;;;;23.30;54.90;;;;;;10293783;28;92007;-68
2023/07/14 06:44:17;;;;;;;;;;;23.30;54.90;;;;;;10289749;28;92484;-67
2023/07/14 06:49:27;;;;;;;;;;;23.30;54.90;;;;;;10315632;28;94719;-67
2023/07/14 06:54:30;;;;;;;;;;;23.20;54.70;;;;;;10330275;28;96546;-68
2023/07/14 06:59:31;;;;;;;;;;;23.20;54.70;;;;;;10331786;28;94661;-66
2023/07/14 07:04:33;;;;;;;;;;;23.30;54.50;;;;;;10331016;28;94446;-68
2023/07/14 07:09:35;;;;;;;;;;;23.20;54.10;;;;;;10332890;28;93429;-67
2023/07/14 07:14:37;;;;;;;;;;;23.20;53.90;;;;;;10330877;28;93646;-66
2023/07/14 07:19:39;;;;;;;;;;;23.20;54.00;;;;;;10330591;28;94480;-67
2023/07/14 07:24:40;;;;;;;;;;;23.20;53.80;;;;;;10329115;28;94594;-67
2023/07/14 07:29:43;;;;;;;;;;;23.20;54.00;;;;;;10333329;28;93611;-67
2023/07/14 07:34:44;;;;;;;;;;;23.20;54.30;;;;;;10330333;28;93590;-67
2023/07/14 07:39:46;;;;;;;;;;;23.20;54.40;;;;;;10331520;28;94249;-67
2023/07/14 07:44:48;;;;;;;;;;;23.20;54.10;;;;;;10328373;28;96152;-66
2023/07/14 07:49:50;;;;;;;;;;;23.20;53.90;;;;;;10330917;28;93172;-67
2023/07/14 07:54:52;;;;;;;;;;;23.20;54.00;;;;;;10331110;28;94815;-67
2023/07/14 07:59:53;;;;;;;;;;;23.20;53.80;;;;;;10330116;28;94728;-66
2023/07/14 08:04:55;;;;;;;;;;;23.20;53.80;;;;;;10330767;28;94470;-64
2023/07/14 08:09:58;;;;;;;;;;;23.20;54.00;;;;;;10331018;28;93667;-67
2023/07/14 08:14:59;;;;;;;;;;;23.20;53.70;;;;;;10329365;28;94635;-67
2023/07/14 08:20:03;;;;;;;;;;;23.30;53.50;;;;;;10330532;28;93832;-66
2023/07/14 08:25:07;;;;;;;;;;;23.30;52.80;;;;;;10329580;28;93626;-67
2023/07/14 08:30:09;;;;;;;;;;;23.30;52.60;;;;;;10329161;28;93464;-66
2023/07/14 08:35:11;;;;;;;;;;;23.30;52.20;;;;;;10326959;28;96878;-65
2023/07/14 08:40:14;;;;;;;;;;;23.30;52.20;;;;;;10328933;28;93461;-66
2023/07/14 08:45:23;;;;;;;;;;;23.30;52.40;;;;;;10329198;28;93658;-66
2023/07/14 08:50:27;;;;;;;;;;;23.20;52.20;;;;;;10327625;28;93599;-67
2023/07/14 08:55:31;;;;;;;;;;;23.20;52.30;;;;;;10327922;28;94586;-67
2023/07/14 09:00:32;;;;;;;;;;;23.30;52.70;;;;;;10327729;28;93699;-66
2023/07/14 09:05:36;;;;;;;;;;;23.30;52.80;;;;;;10328072;28;93492;-67
2023/07/14 09:10:41;;;;;;;;;;;23.20;53.20;;;;;;10327997;28;92844;-67
2023/07/14 09:15:43;;;;;;;;;;;23.20;53.20;;;;;;10327879;28;94025;-67
2023/07/14 09:20:49;;;;;;;;;;;23.20;53.40;;;;;;10310036;28;94621;-66
2023/07/14 09:26:09;;;;;;;;;;;23.20;53.40;;;;;;10324858;28;97111;-65
2023/07/14 09:31:30;;;;;;;;;;;23.20;53.50;;;;;;10327932;28;94498;-66
2023/07/14 09:36:35;;;;;;;;;;;23.20;53.80;;;;;;10327726;28;94478;-67
2023/07/14 09:41:37;;;;;;;;;;;23.10;54.10;;;;;;10326956;28;94330;-66
2023/07/14 09:46:45;;;;;;;;;;;23.10;54.00;;;;;;10326683;28;95075;-66
2023/07/14 09:52:06;;;;;;;;;;;23.00;54.00;;;;;;10326714;28;93503;-67
2023/07/14 09:57:09;;;;;;;;;;;22.90;53.80;;;;;;10326754;28;94674;-61
2023/07/14 10:02:30;;;;;;;;;;;22.90;54.30;;;;;;10330062;28;92749;-63
2023/07/14 10:07:33;;;;;;;;;;;22.90;54.40;;;;;;10333848;28;93440;-63
2023/07/14 10:12:42;;;;;;;;;;;22.80;54.80;;;;;;10334018;28;93547;-63
2023/07/14 10:17:44;;;;;;;;;;;22.90;54.90;;;;;;10313759;28;96884;-62
2023/07/14 10:22:51;;;;;;;;;;;22.80;54.70;;;;;;10334690;28;94445;-63
2023/07/14 10:28:13;;;;;;;;;;;22.90;54.80;;;;;;10334166;28;93441;-62
2023/07/14 10:33:38;;;;;;;;;;;22.90;54.70;;;;;;10333216;28;94514;-63
2023/07/14 10:38:43;;;;;;;;;;;22.90;54.60;;;;;;10332969;28;94474;-63
2023/07/14 10:43:51;;;;;;;;;;;22.80;54.60;;;;;;10314448;28;93633;-61
2023/07/14 10:49:06;;;;;;;;;;;22.80;54.70;;;;;;10332380;28;94071;-66
2023/07/14 10:54:13;;;;;;;;;;;22.80;55.00;;;;;;10333113;28;93794;-67
2023/07/14 10:59:24;;;;;;;;;;;22.90;55.40;;;;;;10333343;28;94669;-66
2023/07/14 11:04:53;;;;;;;;;;;23.00;56.80;;;;;;10332836;28;114259;-66
2023/07/14 11:10:00;;;;;;;;;;;23.20;56.40;;;;;;10311071;28;95881;-65
2023/07/14 11:15:22;;;;;;;;;;;23.30;55.20;;;;;;10330707;28;93437;-66
2023/07/14 11:20:31;;;;;;;;;;;23.40;54.90;;;;;;10314501;28;93624;-66
2023/07/14 11:25:42;;;;;;;;;;;23.40;54.80;;;;;;10332317;28;93901;-66
2023/07/14 11:30:46;;;;;;;;;;;23.40;54.50;;;;;;10297722;28;94682;-67
2023/07/14 11:36:07;;;;;;;;;;;23.40;54.00;;;;;;10330885;28;93331;-67
2023/07/14 11:41:09;;;;;;;;;;;23.40;53.80;;;;;;10308477;28;94523;-67
2023/07/14 11:46:14;;;;;;;;;;;23.40;53.60;;;;;;10296864;28;93878;-66
2023/07/14 11:51:16;;;;;;;;;;;23.40;53.50;;;;;;10310771;28;94564;-67
2023/07/14 11:56:24;;;;;;;;;;;23.40;53.60;;;;;;10331242;28;94612;-66
2023/07/14 12:01:28;;;;;;;;;;;23.40;53.50;;;;;;10327848;28;96082;-68
2023/07/14 12:06:48;;;;;;;;;;;23.40;53.70;;;;;;10330210;28;94869;-67
2023/07/14 12:11:53;;;;;;;;;;;23.40;53.60;;;;;;10330389;28;93446;-68
2023/07/14 12:16:57;;;;;;;;;;;23.40;53.60;;;;;;10329890;28;93613;-66
2023/07/14 12:22:07;;;;;;;;;;;23.50;53.60;;;;;;10329906;28;92567;-67
2023/07/14 12:27:25;;;;;;;;;;;23.50;53.50;;;;;;10329561;28;94362;-66
2023/07/14 12:32:27;;;;;;;;;;;23.50;53.40;;;;;;10329947;28;93877;-67
2023/07/14 12:37:32;;;;;;;;;;;23.50;53.20;;;;;;10330554;28;93822;-66
2023/07/14 12:42:38;;;;;;;;;;;23.50;53.30;;;;;;10328173;28;94478;-67
2023/07/14 12:47:43;;;;;;;;;;;23.50;53.80;;;;;;10328306;28;94246;-66
2023/07/14 12:52:46;;;;;;;;;;;23.50;54.00;;;;;;10326020;28;95824;-66
2023/07/14 12:57:48;;;;;;;;;;;23.50;54.00;;;;;;10326332;28;93690;-66
2023/07/14 13:02:52;;;;;;;;;;;23.50;54.50;;;;;;10328380;28;93661;-67
2023/07/14 13:07:54;;;;;;;;;;;23.60;54.60;;;;;;10326014;28;93379;-64
2023/07/14 13:12:56;;;;;;;;;;;23.60;54.10;;;;;;10322676;28;94622;-65
2023/07/14 13:18:02;;;;;;;;;;;23.70;53.90;;;;;;10317883;28;95141;-66
2023/07/14 13:23:24;;;;;;;;;;;23.70;53.80;;;;;;10320629;28;93715;-65
2023/07/14 13:28:27;;;;;;;;;;;23.70;53.70;;;;;;10327171;28;93839;-65
2023/07/14 13:33:29;;;;;;;;;;;23.70;53.80;;;;;;10328037;28;93798;-65
2023/07/14 13:38:31;;;;;;;;;;;23.70;53.80;;;;;;10327824;28;95944;-65
2023/07/14 13:43:33;;;;;;;;;;;23.80;53.80;;;;;;10326133;28;97006;-64
2023/07/14 13:48:35;;;;;;;;;;;23.80;53.60;;;;;;10328079;28;93716;-66
2023/07/14 13:53:36;;;;;;;;;;;23.80;53.50;;;;;;10327441;28;94503;-66
2023/07/14 13:58:38;;;;;;;;;;;23.80;53.60;;;;;;10324349;28;92603;-65
2023/07/14 14:03:41;;;;;;;;;;;23.80;53.70;;;;;;10327670;28;94496;-65
2023/07/14 14:08:47;;;;;;;;;;;23.80;53.70;;;;;;10326170;28;94489;-65
2023/07/14 14:13:48;;;;;;;;;;;23.80;53.70;;;;;;10327111;28;94506;-65
2023/07/14 14:18:50;;;;;;;;;;;23.80;53.60;;;;;;10327138;28;92979;-65
2023/07/14 14:23:52;;;;;;;;;;;23.80;53.60;;;;;;10326979;28;94685;-65
2023/07/14 14:28:54;;;;;;;;;;;23.80;53.60;;;;;;10325669;28;93654;-65
2023/07/14 14:33:55;;;;;;;;;;;23.80;53.60;;;;;;10320775;28;96884;-66
2023/07/14 14:38:57;;;;;;;;;;;23.80;53.60;;;;;;10325984;28;92897;-64
2023/07/14 14:44:00;;;;;;;;;;;23.80;52.90;;;;;;10325068;28;92516;-66
2023/07/14 14:49:02;;;;;;;;;;;23.80;52.30;;;;;;10329295;28;93582;-66
2023/07/14 14:54:05;;;;;;;;;;;23.80;52.20;;;;;;10332649;28;93720;-66
2023/07/14 14:59:24;;;;;;;;;;;23.80;51.90;;;;;;10331995;28;95000;-65
2023/07/14 15:04:30;;;;;;;;;;;23.80;51.90;;;;;;10332613;28;93988;-64
2023/07/14 15:09:32;;;;;;;;;;;23.80;51.90;;;;;;10332712;28;93786;-65
2023/07/14 15:14:34;;;;;;;;;;;23.80;52.20;;;;;;10331032;28;93482;-65
2023/07/14 15:19:37;;;;;;;;;;;23.80;52.50;;;;;;10329950;28;93062;-65
2023/07/14 15:24:39;;;;;;;;;;;23.80;52.70;;;;;;10328808;28;96404;-63
2023/07/14 15:29:41;;;;;;;;;;;23.90;52.50;;;;;;10331454;28;94745;-61
2023/07/14 15:34:43;;;;;;;;;;;23.90;52.60;;;;;;10331199;28;94041;-62
2023/07/14 15:39:45;;;;;;;;;;;23.80;52.50;;;;;;10331170;28;94479;-60
2023/07/14 15:44:47;;;;;;;;;;;23.90;53.40;;;;;;10331433;28;93289;-61
2023/07/14 15:49:49;;;;;;;;;;;23.90;53.30;;;;;;10329593;28;93756;-63
2023/07/14 15:54:51;;;;;;;;;;;23.90;53.90;;;;;;10330660;28;94503;-62
2023/07/14 15:59:53;;;;;;;;;;;24.00;55.70;;;;;;10330508;28;92767;-66
2023/07/14 16:04:55;;;;;;;;;;;24.10;54.90;;;;;;10328561;28;94494;-64
2023/07/14 16:09:57;;;;;;;;;;;24.20;55.80;;;;;;10329959;28;94411;-66
2023/07/14 16:14:59;;;;;;;;;;;24.30;54.70;;;;;;10327212;28;95849;-67
2023/07/14 16:20:02;;;;;;;;;;;24.40;55.20;;;;;;10328744;28;94201;-68
2023/07/14 16:25:04;;;;;;;;;;;24.40;53.60;;;;;;10323362;28;93475;-66
2023/07/14 16:30:16;;;;;;;;;;;24.50;54.20;;;;;;10325886;28;93256;-68
2023/07/14 16:35:20;;;;;;;;;;;24.60;52.80;;;;;;10329716;28;92633;-66
2023/07/14 16:40:26;;;;;;;;;;;24.60;52.80;;;;;;10330073;28;95055;-66
2023/07/14 16:45:31;;;;;;;;;;;24.60;52.70;;;;;;10330036;28;93939;-66
2023/07/14 16:50:33;;;;;;;;;;;24.70;53.00;;;;;;10329255;28;92773;-67
2023/07/14 16:55:40;;;;;;;;;;;24.60;53.30;;;;;;10330234;28;94753;-63
2023/07/14 17:00:43;;;;;;;;;;;24.60;53.60;;;;;;10330224;28;95044;-66
2023/07/14 17:05:45;;;;;;;;;;;24.60;55.20;;;;;;10325822;28;97105;-65
2023/07/14 17:10:47;;;;;;;;;;;24.80;55.70;;;;;;10327413;28;94354;-66
2023/07/14 17:15:51;;;;;;;;;;;24.80;54.40;;;;;;10329288;28;93568;-65
2023/07/14 17:20:54;;;;;;;;;;;24.80;54.10;;;;;;10328112;28;93580;-66
2023/07/14 17:25:57;;;;;;;;;;;24.80;54.50;;;;;;10327826;28;94078;-64
2023/07/14 17:30:59;;;;;;;;;;;24.70;54.70;;;;;;10328653;28;94366;-64
2023/07/14 17:36:05;;;;;;;;;;;24.70;55.30;;;;;;10325226;28;92672;-64
2023/07/14 17:41:09;;;;;;;;;;;24.60;55.70;;;;;;10328038;28;93849;-64
2023/07/14 17:46:11;;;;;;;;;;;24.60;56.70;;;;;;10327400;28;93374;-63
2023/07/14 17:51:14;;;;;;;;;;;24.50;56.60;;;;;;10327095;28;94409;-63
2023/07/14 17:56:15;;;;;;;;;;;24.40;56.90;;;;;;10323232;28;97131;-64
2023/07/14 18:01:17;;;;;;;;;;;24.40;57.00;;;;;;10325852;28;94139;-64
2023/07/14 18:06:21;;;;;;;;;;;24.40;57.00;;;;;;10326874;28;94464;-64
2023/07/14 18:11:24;;;;;;;;;;;24.40;57.00;;;;;;10326197;28;94440;-65
2023/07/14 18:16:26;;;;;;;;;;;24.30;57.00;;;;;;10323994;28;93448;-64
2023/07/14 18:21:28;;;;;;;;;;;24.30;57.30;;;;;;10323782;28;93707;-65
2023/07/14 18:26:30;;;;;;;;;;;24.30;57.10;;;;;;10333484;28;94657;-65
2023/07/14 18:31:32;;;;;;;;;;;24.30;57.20;;;;;;10333620;28;93023;-64
2023/07/14 18:36:34;;;;;;;;;;;24.30;58.20;;;;;;10332473;28;94807;-64
2023/07/14 18:41:37;;;;;;;;;;;24.30;57.30;;;;;;10332983;28;93555;-64
2023/07/14 18:46:38;;;;;;;;;;;24.30;57.30;;;;;;10329382;28;95329;-64
2023/07/14 18:51:43;;;;;;;;;;;24.30;57.50;;;;;;10333265;28;94495;-64
2023/07/14 18:56:44;;;;;;;;;;;24.20;57.50;;;;;;10331810;28;94805;-65
2023/07/14 19:01:47;;;;;;;;;;;24.20;57.60;;;;;;10332809;28;94476;-64
2023/07/14 19:06:50;;;;;;;;;;;24.20;58.00;;;;;;10331091;28;93706;-64
2023/07/14 19:11:56;;;;;;;;;;;24.20;57.80;;;;;;10330126;28;94894;-65
2023/07/14 19:16:59;;;;;;;;;;;24.20;58.00;;;;;;10331085;28;93448;-63
2023/07/14 19:22:01;;;;;;;;;;;24.20;58.10;;;;;;10332459;28;92764;-65
2023/07/14 19:27:03;;;;;;;;;;;24.20;58.20;;;;;;10329903;28;94741;-64
2023/07/14 19:32:05;;;;;;;;;;;24.10;58.20;;;;;;10331774;28;93527;-64
2023/07/14 19:37:10;;;;;;;;;;;24.10;58.30;;;;;;10327998;28;96001;-63
2023/07/14 19:42:16;;;;;;;;;;;24.10;58.40;;;;;;10331454;28;92950;-64
2023/07/14 19:47:19;;;;;;;;;;;24.00;58.40;;;;;;10330449;28;94557;-64
2023/07/14 19:52:21;;;;;;;;;;;24.10;58.50;;;;;;10331353;28;94425;-65
2023/07/14 19:57:23;;;;;;;;;;;24.00;58.50;;;;;;10312678;28;94525;-65
2023/07/14 20:02:25;;;;;;;;;;;24.00;58.50;;;;;;10330164;28;94294;-64
2023/07/14 20:07:28;;;;;;;;;;;24.00;58.60;;;;;;10331642;28;94483;-66
2023/07/14 20:12:29;;;;;;;;;;;24.00;58.60;;;;;;10330028;28;93708;-65
2023/07/14 20:17:31;;;;;;;;;;;24.00;58.80;;;;;;10329861;28;92855;-65
2023/07/14 20:22:33;;;;;;;;;;;24.00;58.70;;;;;;10328397;28;92547;-66
2023/07/14 20:27:35;;;;;;;;;;;24.00;58.50;;;;;;10325666;28;95726;-64
2023/07/14 20:32:37;;;;;;;;;;;23.90;58.40;;;;;;10328355;28;93718;-65
2023/07/14 20:37:39;;;;;;;;;;;23.90;58.40;;;;;;10328547;28;94926;-66
2023/07/14 20:42:41;;;;;;;;;;;23.90;58.70;;;;;;10329446;28;94644;-66
2023/07/14 20:47:43;;;;;;;;;;;23.90;58.80;;;;;;10327486;28;93261;-65
2023/07/14 20:52:46;;;;;;;;;;;23.90;58.90;;;;;;10328346;28;94465;-65
2023/07/14 20:57:48;;;;;;;;;;;23.90;58.80;;;;;;10328533;28;94626;-64
2023/07/14 21:02:50;;;;;;;;;;;23.80;58.80;;;;;;10327768;28;93799;-65
2023/07/14 21:07:51;;;;;;;;;;;23.80;58.80;;;;;;10327485;28;94164;-64
2023/07/14 21:12:53;;;;;;;;;;;23.80;58.80;;;;;;10327396;28;94295;-65
2023/07/14 21:17:55;;;;;;;;;;;23.80;58.80;;;;;;10325103;28;96922;-65
2023/07/14 21:22:58;;;;;;;;;;;23.80;58.80;;;;;;10327586;28;92544;-65
2023/07/14 21:28:00;;;;;;;;;;;23.80;58.90;;;;;;10326012;28;93362;-64
2023/07/14 21:33:02;;;;;;;;;;;23.80;58.90;;;;;;10326962;28;94159;-66
2023/07/14 21:38:14;;;;;;;;;;;23.80;59.00;;;;;;10326419;28;93621;-66
2023/07/14 21:43:18;;;;;;;;;;;23.80;59.00;;;;;;10327375;28;94474;-65
2023/07/14 21:48:22;;;;;;;;;;;23.80;59.00;;;;;;10325661;28;93687;-66
2023/07/14 21:53:28;;;;;;;;;;;23.80;59.20;;;;;;10326244;28;92970;-65
2023/07/14 21:58:31;;;;;;;;;;;23.70;59.00;;;;;;10326118;28;93657;-65
2023/07/14 22:03:32;;;;;;;;;;;23.70;59.10;;;;;;10327717;28;93196;-64
2023/07/14 22:08:34;;;;;;;;;;;23.70;59.10;;;;;;10324579;28;96818;-64
2023/07/14 22:13:36;;;;;;;;;;;23.70;59.10;;;;;;10326549;28;93582;-66
2023/07/14 22:18:38;;;;;;;;;;;23.70;59.20;;;;;;10327957;28;93536;-64
2023/07/14 22:23:48;;;;;;;;;;;23.70;59.10;;;;;;10325630;28;94009;-65
2023/07/14 22:28:50;;;;;;;;;;;23.70;59.20;;;;;;10325579;28;94533;-65
2023/07/14 22:33:53;;;;;;;;;;;23.70;59.20;;;;;;10327117;28;94530;-66
2023/07/14 22:38:55;;;;;;;;;;;23.70;59.20;;;;;;10326840;28;93511;-66
2023/07/14 22:43:58;;;;;;;;;;;23.70;59.20;;;;;;10327022;28;93818;-65
2023/07/14 22:49:00;;;;;;;;;;;23.70;59.20;;;;;;10325850;28;94607;-66
2023/07/14 22:54:04;;;;;;;;;;;23.70;59.20;;;;;;10326705;28;94503;-66
2023/07/14 22:59:06;;;;;;;;;;;23.70;59.20;;;;;;10322922;28;96158;-65
2023/07/14 23:04:09;;;;;;;;;;;23.70;59.20;;;;;;10324651;28;94698;-66
2023/07/14 23:09:11;;;;;;;;;;;23.70;59.30;;;;;;10326705;28;93248;-66
2023/07/14 23:14:13;;;;;;;;;;;23.70;59.20;;;;;;10332674;28;93411;-65
2023/07/14 23:19:15;;;;;;;;;;;23.70;59.20;;;;;;10332024;28;94543;-66
2023/07/14 23:24:17;;;;;;;;;;;23.70;59.20;;;;;;10332830;28;94431;-65
2023/07/14 23:29:19;;;;;;;;;;;23.70;59.30;;;;;;10330184;28;94529;-66
2023/07/14 23:34:21;;;;;;;;;;;23.70;59.30;;;;;;10330688;28;92965;-65
2023/07/14 23:39:22;;;;;;;;;;;23.70;59.40;;;;;;10332034;28;94912;-66
2023/07/14 23:44:24;;;;;;;;;;;23.70;59.40;;;;;;10331213;28;93926;-66
2023/07/14 23:49:27;;;;;;;;;;;23.70;59.20;;;;;;10328470;28;96856;-65
2023/07/14 23:54:29;;;;;;;;;;;23.70;59.20;;;;;;10330466;28;94241;-66
2023/07/14 23:59:31;;;;;;;;;;;23.70;59.20;;;;;;10330880;28;92734;-66
